• Join FlightAware (Why Join?)
  • Login
  • US Flag 
09:21AM EST


 

Airport Tracker/Info


-or-


 

Live Flight TrackerFlight Track Log ✈ N147SW ✈ 16-Jun-2014 ✈ KPIE - KOFP

Flight Track Log - Related Links

Times and Time Zones

All times are in EDT time to prevent confusion due to time zone crossing. See the N147SW flight status page for this flight to view local times or setup timezone preferences in your user account.

Time Position Orientation Groundspeed Altitude Reporting Facility
EDT Latitude Longitude Course Direction KTS MPH feet Rate Location/Type
06:12AM 27.9333 -82.7000 360° North 174 200 700  Level Tampa TRACON
06:13AM 27.9500 -82.7000 360° North 184 212 1,600 2,400 Climbing Tampa TRACON
06:14AM 28.0000 -82.7000 360° North 239 275 4,300 2,700 Climbing Tampa TRACON
06:16AM 28.1581 -82.6456 17° North 276 318 9,900 2,580 Climbing Miami Center
06:17AM 28.2431 -82.6119 19° North 311 358 12,400 2,520 Climbing Miami Center
06:18AM 28.3317 -82.5919 11° North 322 371 15,000 2,400 Climbing Miami Center
06:19AM 28.4253 -82.5908 North 331 381 17,300 2,100 Climbing Miami Center
06:20AM 28.5211 -82.5878 North 326 375 19,300 2,100 Climbing Jacksonville Center
06:21AM 28.6150 -82.5875 360° North 336 387 21,500 1,740 Climbing Jacksonville Center
06:22AM 28.7025 -82.5847 North 341 392 22,800 1,560 Climbing Jacksonville Center
06:23AM 28.8069 -82.5822 North 348 400 24,700 1,920 Climbing Jacksonville Center
06:24AM 28.9217 -82.5817 360° North 362 417 26,700 1,800 Climbing Jacksonville Center
06:25AM 29.0303 -82.5792 North 372 428 28,300 1,560 Climbing Jacksonville Center
06:26AM 29.1367 -82.5764 North 377 434 29,900 1,500 Climbing Jacksonville Center
06:27AM 29.2453 -82.5761 360° North 382 440 31,400 1,200 Climbing Jacksonville Center
06:28AM 29.3558 -82.5708 North 382 440 32,400 960 Climbing Jacksonville Center
06:29AM 29.4706 -82.5681 North 392 451 33,400 960 Climbing Jacksonville Center
06:30AM 29.5856 -82.5678 360° North 404 465 34,400 1,920 Climbing Jacksonville Center
06:31AM 29.6942 -82.5650 North 397 457 37,300 2,220 Climbing Jacksonville Center
06:32AM 29.7900 -82.5622 North 377 434 38,900 840 Climbing Jacksonville Center
06:33AM 29.8903 -82.5594 North 354 407 39,000  Climbing Jacksonville Center
06:34AM 29.9947 -82.5592 360° North 354 407 39,000  Level Jacksonville Center
06:35AM 30.1033 -82.5614 359° North 371 427 39,000  Level Jacksonville Center
06:36AM 30.2139 -82.5583 North 384 442 39,000  Level Jacksonville Center
06:37AM 30.3308 -82.5581 360° North 396 456 39,000 240 Level Jacksonville Center
06:38AM 30.4478 -82.5578 360° North 406 467 39,500 900 Climbing Jacksonville Center
06:39AM 30.5375 -82.5356 12° North 394 453 40,900 720 Climbing Jacksonville Center
06:40AM 30.6333 -82.4750 29° Northeast 380 437 41,000  Climbing Jacksonville Center
06:41AM 30.7333 -82.4092 30° Northeast 387 445 41,000  Level Jacksonville Center
06:42AM 30.8311 -82.3458 29° Northeast 392 451 41,000  Level Jacksonville Center
06:43AM 30.9331 -82.2797 29° Northeast 404 465 41,000  Level Jacksonville Center
06:44AM 31.0353 -82.2136 29° Northeast 409 471 41,000  Level Jacksonville Center
06:45AM 31.1350 -82.1475 30° Northeast 409 471 41,000  Level Jacksonville Center
06:46AM 31.2369 -82.0833 28° Northeast 409 471 41,000  Level Jacksonville Center
06:47AM 31.3389 -82.0169 29° Northeast 409 471 41,000  Level Jacksonville Center
06:48AM 31.4489 -81.9403 31° Northeast 409 471 41,000  Level Jacksonville Center
06:49AM 31.5486 -81.8736 30° Northeast 409 471 41,000  Level Jacksonville Center
06:50AM 31.6419 -81.8114 30° Northeast 414 476 41,000  Level Jacksonville Center
06:51AM 31.7542 -81.7369 29° Northeast 414 476 41,000  Level Jacksonville Center
06:52AM 31.8536 -81.6719 29° Northeast 414 476 41,000  Level Jacksonville Center
06:53AM 31.9450 -81.6097 30° Northeast 414 476 41,000  Level Jacksonville Center
06:54AM 32.0569 -81.5369 29° Northeast 409 471 41,000  Level Jacksonville Center
06:55AM 32.1481 -81.4767 29° Northeast 414 476 41,000  Level Jacksonville Center
06:56AM 32.2642 -81.4036 28° Northeast 426 490 41,000  Level Jacksonville Center
06:57AM 32.3553 -81.3358 32° Northeast 420 483 41,000  Level Jacksonville Center
06:58AM 32.4589 -81.2675 29° Northeast 425 489 41,000  Level Jacksonville Center
06:59AM 32.5706 -81.1917 30° Northeast 425 489 41,000  Level Jacksonville Center
07:00AM 32.6658 -81.1281 29° Northeast 425 489 41,000  Level Jacksonville Center
07:01AM 32.7669 -81.0569 31° Northeast 420 483 41,000  Level Jacksonville Center
07:02AM 32.8683 -80.9858 30° Northeast 414 476 41,000  Level Jacksonville Center
07:03AM 32.9714 -80.9167 29° Northeast 414 476 41,000  Level Jacksonville Center
07:04AM 33.0769 -80.8450 30° Northeast 414 476 41,000  Level Jacksonville Center
07:05AM 33.1781 -80.7756 30° Northeast 414 476 41,000  Level Jacksonville Center
07:06AM 33.2831 -80.7036 30° Northeast 414 476 41,000  Level Jacksonville Center
07:07AM 33.3967 -80.6261 30° Northeast 414 476 41,000  Level Jacksonville Center
07:08AM 33.5017 -80.5536 30° Northeast 414 476 41,000  Level Jacksonville Center
07:09AM 33.6047 -80.4811 30° Northeast 414 476 41,000  Level Jacksonville Center
07:10AM 33.7075 -80.4083 30° Northeast 414 476 41,000  Level Jacksonville Center
07:11AM 33.8125 -80.3331 31° Northeast 414 476 41,000  Level Jacksonville Center
07:12AM 33.9175 -80.2600 30° Northeast 419 482 41,000  Level Jacksonville Center
07:13AM 34.0222 -80.1867 30° Northeast 419 482 41,000  Level Jacksonville Center
07:15AM 34.2483 -80.0236 31° Northeast 414 476 41,000  Level Washington Center
07:16AM 34.3533 -79.9439 32° Northeast 440 506 41,000  Level Washington Center
07:17AM 34.4603 -79.8714 29° Northeast 445 512 41,000  Level Washington Center
07:18AM 34.5800 -79.7894 29° Northeast 445 512 41,000  Level Washington Center
07:19AM 34.6700 -79.7208 32° Northeast 440 506 41,000  Level Washington Center
07:20AM 34.7811 -79.6506 27° Northeast 440 506 41,000  Level Washington Center
07:21AM 34.8878 -79.5825 28° Northeast 435 501 41,000  Level Washington Center
07:22AM 34.9944 -79.5117 29° Northeast 430 495 41,000  Level Washington Center
07:23AM 35.1031 -79.4383 29° Northeast 430 495 41,000  Level Washington Center
07:24AM 35.2119 -79.3672 28° Northeast 430 495 41,000 -600 Level Washington Center
07:25AM 35.3394 -79.2867 27° Northeast 447 514 39,900 -1,080 Descending Washington Center
07:26AM 35.4525 -79.2075 30° Northeast 453 521 38,900 -1,380 Descending Washington Center
07:27AM 35.5547 -79.1383 29° Northeast 467 537 37,200 -2,040 Descending Washington Center
07:28AM 35.6825 -79.0519 29° Northeast 467 537 34,900 -2,340 Descending Washington Center
07:29AM 35.8058 -78.9728 27° Northeast 472 543 32,600 -2,340 Descending Washington Center
07:30AM 35.9272 -78.8881 29° Northeast 486 559 30,300 -2,280 Descending Washington Center
07:31AM 36.0483 -78.8058 29° Northeast 491 565 28,000 -2,280 Descending Washington Center
07:32AM 36.1653 -78.7231 30° Northeast 491 565 25,800 -2,280 Descending Washington Center
07:33AM 36.2864 -78.6403 29° Northeast 491 565 23,600 -1,980 Descending Washington Center
07:34AM 36.4031 -78.5572 30° Northeast 491 565 21,800 -1,620 Descending Washington Center
07:35AM 36.5156 -78.4786 29° Northeast 480 552 20,400 -1,320 Descending Washington Center
07:36AM 36.6261 -78.4000 30° Northeast 468 539 19,300 -1,080 Descending Washington Center
07:37AM 36.7342 -78.3208 30° Northeast 456 525 18,300 -1,140 Descending Washington Center
07:38AM 36.8444 -78.2444 29° Northeast 449 517 17,100 -1,620 Descending Washington Center
07:39AM 36.9503 -78.1675 30° Northeast 449 517 15,100 -1,920 Descending Washington Center
07:40AM 37.0561 -78.0956 28° Northeast 449 517 13,200 -1,920 Descending Washington Center
07:41AM 37.1558 -78.0181 32° Northeast 439 505 11,300 -1,620 Descending Washington Center
07:42AM 37.2411 -77.9267 40° Northeast 420 483 10,000 -840 Descending Washington Center
07:43AM 37.3242 -77.8406 39° Northeast 396 456 9,700 -1,200 Descending Washington Center
07:44AM 37.3944 -77.7667 40° Northeast 357 411 7,700 -2,160 Descending Washington Center
07:45AM 37.4561 -77.7006 40° Northeast 315 362 5,600 -2,040 Descending Washington Center
07:46AM 37.5175 -77.6394 38° Northeast 292 336 3,700 -1,320 Descending Washington Center
07:47AM 37.5750 -77.5781 40° Northeast 274 315 3,000 -420 Descending Washington Center
07:48AM 37.6281 -77.5217 40° Northeast 261 300 2,900 -60 Descending Washington Center
07:49AM 37.6789 -77.4678 40° Northeast 261 300 2,900 3,600 Level Washington Center
07:50AM 37.7319 -77.4114 40° Northeast 261 300 10,000 7,320 Climbing Washington Center
07:52AM 37.7000 -77.4333 38° Northeast  Level FlightAware Approximate
07:59AM 37.7089 -77.4366 38° Northeast  Level Estimated
08:00AM 37.7089 -77.4366 38° Northeast  Level Estimated
08:01AM 37.7089 -77.4366 38° Northeast  Level Estimated
08:02AM 37.7089 -77.4366 38° Northeast  Level Estimated
08:03AM 37.7089 -77.4366 38° Northeast  Level Estimated
08:04AM 37.7089 -77.4366 38° Northeast  Level Estimated
08:05AM 37.7089 -77.4366 38° Northeast  Level Estimated
08:06AM 37.7089 -77.4366 38° Northeast  Level Estimated
08:07AM 37.7089 -77.4366 38° Northeast  Level Estimated
08:08AM 37.7089 -77.4366 38° Northeast  Level Estimated